Lucas, Kansas
Current Conditions -  °F | °C
As of 6:53 PM on Thursday 27 Nov 2014 (Local Time) from KRSL Reporting Station
Clear Clear  
Wind Chill: 30°   Ceiling: Unl
Heat Index: 38°   Visibility: 10mi
Dew Point: 22°   Wind: 14mph
Humidity: 53%   Direction: 160°SSE
Pressure: 30.13"   Gusts: NA
Location:  39.06°N, 98.54°W
Report Text: KRSL 280053Z AUTO 16012KT 10SM CLR 03/M06 A3013 RMK AO2 SLP222 T00331056 $
Loading
Personal Weather Stations






























Interactive Weather Map New forecast layout! Learn more

10-Day Weather Forecast

Advertisements
Track Severe Weather on mobile